Jefferson City, MO

3:14 AM CDT on September 17, 2014 (GMT -0500)
Jefferson City Memorial | Change Station
CLOSE
Current Station
Airport
Location: Jefferson City,
Elevation: 548 ft
Nearby Weather Stations

Elev 548 ft 38.59 °N, 92.16 °W | Updated 21 minutes ago

Overcast
Overcast
56 °F
Feels Like 56 °F
N
5
Wind Variable Wind from SE

Today
High -- | Low -- °F
--% Chance of Precip.
Yesterday
High -- | Low -- °F
Precip. -- in
6:51 AM 7:13 PM
Last Quarter, 38% visible
Pressure 30.01 in
Visibility 9.0 miles
Clouds Overcast 2300 ft
Dew Point 55 °F
Humidity 97%
Rainfall 0.00 in
Snow Depth Not available.
UV 0 out of 12
Pollen 6.70 out of 12
Air Quality Not available.
Flu Activity Not available.
METAR KJEF 170753Z 14004KT 9SM OVC023 13/13 A3004 RMK AO2 SLP162 T01330128

More Conditions Fewer Conditions

Pressure 30.01 in
Visibility 9.0 miles
Clouds Overcast 2300 ft
Dew Point 55 °F
Humidity 97%
Rainfall 0.00 in
Snow Depth Not available.
UV 0 out of 12
Pollen 6.70 out of 12
Air Quality Not available.
Flu Activity Not available.
METAR KJEF 170753Z 14004KT 9SM OVC023 13/13 A3004 RMK AO2 SLP162 T01330128

More Conditions Fewer Conditions

10-Day Weather Forecast

Almanac

Astronomy

Sep. 17, 2014 Rise Set
Actual Time 6:51 AM CDT 7:13 PM CDT
Civil Twilight 6:25 AM CDT 7:40 PM CDT
Nautical Twilight 5:54 AM CDT 8:11 PM CDT
Astronomical Twilight 5:22 AM CDT 8:42 PM CDT
Moon 12:55 AM CDT 3:20 PM CDT
Length of Visible Light 13h 14m
Length of Day
12h 21m
Tomorrow will be 2m 27s shorter.
Last Quarter, 38% of the Moon is Illuminated
Today
Last Quarter
Sep 24
New
Oct 1
First Quarter
Oct 8
Full
Oct 15
Last Quarter

Today's Extremes

State Highs State Lows

Community

WunderPhotos

Upload Photos

1,753,976 photos uploaded!

Nearby

Snow Depth

Station Depth Elevation
No new snow has been reported.

Earthquake Activity

City Distance Mag. Time & Date
No recent earthquake activity has been reported nearby.
Minimum magnitude displayed is 2.5.

Coastal Water Temperatures

Place Temperature
No Stations Reporting

Nearby Weather Stations